MKJP

Details ICAO MKJP (KIN)
Name Norman Manley Int'l
Region Jamaica
Timezone Unknown
Plans Departing 589
Arriving 552
Stats Elevation 8 ft / 2 m (AMSL)
Location 17.935700° -76.787600°
Runways 1
Magnetic Variation 7.627° W
Sunrise 2018-09-20 10:57:05 UTC / 2018-09-20 10:57:05 Local
Sunset 2018-09-20 23:06:47 UTC / 2018-09-20 23:06:47 Local
Advertisement - Login to hide

Runways

ID Width Length Bearing (true/mag) Surface Threshold Overrun Markings Lighting
12 150 ft / 46 m 8,920 ft / 2,719 m 112.10° / 119.73° ASPHALT 0 ft / 0 m 0 ft / 0 m PREC-APP CENTERLINE EDGE THRESHOLD SALS
30 150 ft / 46 m 8,920 ft / 2,719 m 292.11° / 299.74° ASPHALT 0 ft / 0 m 0 ft / 0 m APP CENTERLINE EDGE THRESHOLD SALS

Approach Navaids

Runway Type Ident Frequency Range Bearing (true/mag) Slope Elevation
12 GS IMLY 109.10 MHz 10 nm / 19 km 115.19° / 122.81° 3.00° 8 ft / 2 m (AMSL)
12 LOC-ILS IMLY 109.10 MHz 18 nm / 33 km 115.09° / 122.72° - 10 ft / 3 m (AMSL)

Map

Weather


0- 5 10 15 20 25 30 35+ Temperature / °C

Clouds and Precipitation
Forecast for 2018-09-20 12:00 UTC. Updated 3 hours ago

Ground ~20,000 ft ~40,000 ft Winds

METAR

MKJP 201200Z 34007KT 9999 FEW022 28/21 Q1012

TAF

TAF TAF MKJP 201115Z 2012/2112 14018G28KT 9999 FEW022CB BECMG 2102/2104 36005KT FEW022

Frequencies

Tower 118.65 MHz MANLEY TWR
Approach 120.60 MHz MANLEY APP
Recorded 127.70 MHz ATIS
Ground 121.70 MHz
Warning: Do not use this data for real-world aviation or navigation. No guarantee of current accuracy is given.